createdAt,value
2022-07-25T00:00:11.303Z,20.47
2022-07-25T00:01:13.293Z,20.43
2022-07-25T00:02:16.595Z,20.38
2022-07-25T00:03:18.733Z,20.38
2022-07-25T00:04:20.881Z,20.39
2022-07-25T00:05:24.423Z,20.41
2022-07-25T00:06:26.248Z,20.44
2022-07-25T00:07:28.233Z,20.41
2022-07-25T00:08:29.970Z,20.37
2022-07-25T00:09:31.936Z,20.39
2022-07-25T00:10:33.792Z,20.40
2022-07-25T00:11:35.658Z,20.42
2022-07-25T00:12:37.658Z,20.38
2022-07-25T00:13:39.693Z,20.33
2022-07-25T00:14:41.760Z,20.35
2022-07-25T00:15:43.565Z,20.38
2022-07-25T00:16:45.491Z,20.42
2022-07-25T00:17:47.312Z,20.45
2022-07-25T00:18:49.514Z,20.42
2022-07-25T00:19:51.319Z,20.42
2022-07-25T00:20:53.133Z,20.45
2022-07-25T00:21:55.102Z,20.48
2022-07-25T00:22:56.862Z,20.51
2022-07-25T00:23:58.714Z,20.54
2022-07-25T00:25:00.645Z,20.51
2022-07-25T00:26:02.517Z,20.51
2022-07-25T00:27:04.454Z,20.51
2022-07-25T00:28:06.244Z,20.47
2022-07-25T00:29:08.235Z,20.48
2022-07-25T00:30:10.300Z,20.49
2022-07-25T00:31:12.320Z,20.50
2022-07-25T00:32:14.191Z,20.52
2022-07-25T00:33:15.985Z,20.52
2022-07-25T00:34:17.834Z,20.52
2022-07-25T00:35:19.613Z,20.49
2022-07-25T00:36:21.539Z,20.47
2022-07-25T00:37:23.418Z,20.45
2022-07-25T00:38:25.287Z,20.45
2022-07-25T00:39:27.218Z,20.45
2022-07-25T00:40:29.039Z,20.47
2022-07-25T00:41:31.016Z,20.47
2022-07-25T00:42:32.932Z,20.48
2022-07-25T00:43:34.774Z,20.49
2022-07-25T00:44:36.567Z,20.44
2022-07-25T00:45:38.595Z,20.40
2022-07-25T00:46:40.453Z,20.39
2022-07-25T00:47:43.535Z,20.42
2022-07-25T00:48:45.326Z,20.38
2022-07-25T00:49:47.133Z,20.39
2022-07-25T00:50:48.977Z,20.41
2022-07-25T00:51:51.417Z,20.37
2022-07-25T00:52:53.265Z,20.34
2022-07-25T00:53:56.157Z,20.31
2022-07-25T00:54:57.955Z,20.29
2022-07-25T00:55:59.702Z,20.30
2022-07-25T00:57:02.318Z,20.31
2022-07-25T00:58:04.362Z,20.32
2022-07-25T00:59:06.273Z,20.34
2022-07-25T01:00:09.577Z,20.33
2022-07-25T01:01:11.388Z,20.32
2022-07-25T01:02:13.200Z,20.33
2022-07-25T01:03:15.742Z,20.33
2022-07-25T01:04:17.653Z,20.33
2022-07-25T01:05:19.419Z,20.32
2022-07-25T01:06:21.372Z,20.31
2022-07-25T01:07:26.845Z,20.29
2022-07-25T01:08:28.799Z,20.27
2022-07-25T01:09:31.090Z,20.27
2022-07-25T01:10:33.289Z,20.21
2022-07-25T01:11:35.113Z,20.21
2022-07-25T01:12:49.817Z,20.22
2022-07-25T01:13:51.769Z,20.19
2022-07-25T01:14:53.661Z,20.09
2022-07-25T01:15:55.576Z,20.05
2022-07-25T01:16:57.559Z,20.05
2022-07-25T01:17:59.771Z,20.07
2022-07-25T01:19:01.951Z,20.06
2022-07-25T01:20:03.924Z,20.05
2022-07-25T01:21:05.987Z,20.05
2022-07-25T01:22:07.797Z,20.06
2022-07-25T01:23:09.575Z,20.07
2022-07-25T01:24:12.308Z,20.09
2022-07-25T01:25:14.791Z,20.09
2022-07-25T01:26:16.553Z,20.07
2022-07-25T01:27:18.373Z,20.05
2022-07-25T01:28:20.129Z,20.02
2022-07-25T01:29:21.981Z,20.03
2022-07-25T01:30:24.832Z,20.03
2022-07-25T01:31:26.683Z,20.05
2022-07-25T01:32:28.493Z,20.06
2022-07-25T01:33:30.256Z,20.08
2022-07-25T01:34:32.171Z,20.09
2022-07-25T01:35:34.114Z,20.11
2022-07-25T01:36:35.937Z,20.13
2022-07-25T01:37:37.872Z,20.14
2022-07-25T01:38:40.104Z,20.14
2022-07-25T01:39:41.994Z,20.13
2022-07-25T01:40:44.501Z,20.13
2022-07-25T01:41:46.240Z,20.13
2022-07-25T01:42:48.057Z,20.14
2022-07-25T01:43:49.979Z,20.16
2022-07-25T01:44:52.192Z,20.14
2022-07-25T01:45:54.038Z,20.16
2022-07-25T01:46:55.813Z,20.10
2022-07-25T01:47:57.596Z,20.09
2022-07-25T01:48:59.713Z,20.06
2022-07-25T01:50:01.549Z,20.08
2022-07-25T01:51:03.407Z,20.10
2022-07-25T01:52:05.995Z,20.10
2022-07-25T01:53:07.788Z,20.11
2022-07-25T01:54:10.488Z,20.13
2022-07-25T01:55:12.958Z,20.12
2022-07-25T01:56:14.759Z,20.05
2022-07-25T01:57:16.663Z,20.04
2022-07-25T01:58:18.604Z,19.99
2022-07-25T01:59:21.321Z,19.99
2022-07-25T02:00:23.440Z,20.01
2022-07-25T02:01:25.250Z,20.03
2022-07-25T02:02:27.061Z,20.04
2022-07-25T02:03:31.611Z,20.05
2022-07-25T02:04:33.689Z,20.02
2022-07-25T02:05:35.539Z,20.00
2022-07-25T02:06:37.370Z,20.00
2022-07-25T02:07:39.127Z,19.99
2022-07-25T02:08:40.851Z,19.96
2022-07-25T02:09:43.229Z,19.96
2022-07-25T02:10:45.207Z,19.97
2022-07-25T02:11:47.058Z,19.99
2022-07-25T02:12:48.813Z,19.98
2022-07-25T02:13:50.578Z,19.99
2022-07-25T02:14:52.306Z,19.98
2022-07-25T02:15:54.218Z,19.99
2022-07-25T02:16:56.051Z,20.01
2022-07-25T02:17:57.859Z,20.03
2022-07-25T02:18:59.719Z,19.99
2022-07-25T02:20:01.468Z,19.94
2022-07-25T02:21:03.369Z,19.85
2022-07-25T02:22:05.141Z,19.73
2022-07-25T02:23:06.910Z,19.72
2022-07-25T02:24:09.254Z,19.73
2022-07-25T02:25:11.322Z,19.74
2022-07-25T02:26:13.479Z,19.76
2022-07-25T02:27:15.256Z,19.77
2022-07-25T02:28:17.103Z,19.78
2022-07-25T02:29:18.877Z,19.81
2022-07-25T02:30:24.303Z,19.81
2022-07-25T02:31:26.285Z,19.83
2022-07-25T02:32:28.123Z,19.84
2022-07-25T02:33:30.164Z,19.85
2022-07-25T02:34:31.912Z,19.85
2022-07-25T02:35:33.956Z,19.86
2022-07-25T02:36:35.831Z,19.85
2022-07-25T02:37:37.616Z,19.85
2022-07-25T02:38:39.655Z,19.81
2022-07-25T02:39:41.426Z,19.79
2022-07-25T02:40:43.173Z,19.78
2022-07-25T02:41:44.996Z,19.73
2022-07-25T02:42:46.781Z,19.64
2022-07-25T02:43:48.603Z,19.58
2022-07-25T02:44:50.462Z,19.57
2022-07-25T02:45:52.330Z,19.60
2022-07-25T02:46:54.168Z,19.63
2022-07-25T02:47:55.939Z,19.64
2022-07-25T02:48:59.230Z,19.65
2022-07-25T02:50:01.146Z,19.64
2022-07-25T02:51:03.006Z,19.65
2022-07-25T02:52:05.042Z,19.67
2022-07-25T02:53:06.772Z,19.69
2022-07-25T02:54:08.532Z,19.71
2022-07-25T02:55:10.709Z,19.73
2022-07-25T02:56:12.537Z,19.71
2022-07-25T02:57:16.291Z,19.74
2022-07-25T02:58:18.013Z,19.74
2022-07-25T02:59:19.945Z,19.75
2022-07-25T03:00:21.831Z,19.74
2022-07-25T03:01:23.662Z,19.70
2022-07-25T03:02:25.577Z,19.62
2022-07-25T03:03:27.424Z,19.62
2022-07-25T03:04:31.298Z,19.63
2022-07-25T03:05:33.121Z,19.66
2022-07-25T03:06:34.882Z,19.67
2022-07-25T03:07:37.807Z,19.69
2022-07-25T03:08:39.595Z,19.70
2022-07-25T03:09:41.499Z,19.69
2022-07-25T03:10:43.272Z,19.65
2022-07-25T03:11:45.529Z,19.68
2022-07-25T03:12:47.353Z,19.68
2022-07-25T03:13:49.121Z,19.66
2022-07-25T03:14:50.972Z,19.65
2022-07-25T03:15:52.736Z,19.67
2022-07-25T03:16:54.651Z,19.68
2022-07-25T03:17:56.675Z,19.67
2022-07-25T03:18:58.671Z,19.66
2022-07-25T03:20:00.442Z,19.65
2022-07-25T03:21:02.173Z,19.66
2022-07-25T03:22:03.994Z,19.62
2022-07-25T03:23:05.915Z,19.54
2022-07-25T03:24:08.172Z,19.49
2022-07-25T03:25:15.567Z,19.52
2022-07-25T03:26:23.092Z,19.53
2022-07-25T03:27:26.938Z,19.55
2022-07-25T03:28:28.771Z,19.56
2022-07-25T03:29:30.593Z,19.56
2022-07-25T03:30:32.458Z,19.55
2022-07-25T03:31:34.745Z,19.58
2022-07-25T03:32:36.567Z,19.58
2022-07-25T03:33:38.430Z,19.57
2022-07-25T03:34:40.236Z,19.55
2022-07-25T03:35:42.203Z,19.55
2022-07-25T03:36:43.975Z,19.57
2022-07-25T03:37:46.042Z,19.57
2022-07-25T03:38:47.903Z,19.59
2022-07-25T03:39:49.770Z,19.61
2022-07-25T03:40:51.581Z,19.59
2022-07-25T03:41:53.432Z,19.60
2022-07-25T03:42:55.358Z,19.61
2022-07-25T03:43:57.172Z,19.61
2022-07-25T03:44:58.976Z,19.59
2022-07-25T03:46:00.863Z,19.57
2022-07-25T03:47:02.655Z,19.55
2022-07-25T03:48:04.475Z,19.55
2022-07-25T03:49:06.363Z,19.53
2022-07-25T03:50:08.285Z,19.52
2022-07-25T03:51:10.052Z,19.54
2022-07-25T03:52:11.819Z,19.49
2022-07-25T03:53:13.803Z,19.46
2022-07-25T03:54:15.668Z,19.43
2022-07-25T03:55:17.441Z,19.44
2022-07-25T03:56:19.232Z,19.38
2022-07-25T03:57:21.030Z,19.38
2022-07-25T03:58:22.801Z,19.41
2022-07-25T03:59:24.664Z,19.44
2022-07-25T04:00:26.556Z,19.47
2022-07-25T04:01:29.021Z,19.51
2022-07-25T04:02:30.909Z,19.53
2022-07-25T04:03:33.373Z,19.50
2022-07-25T04:04:35.224Z,19.45
2022-07-25T04:05:36.998Z,19.46
2022-07-25T04:06:39.357Z,19.48
2022-07-25T04:07:41.173Z,19.49
2022-07-25T04:08:42.961Z,19.52
2022-07-25T04:09:45.136Z,19.55
2022-07-25T04:10:46.912Z,19.58
2022-07-25T04:11:48.748Z,19.62
2022-07-25T04:12:50.558Z,19.64
2022-07-25T04:13:52.315Z,19.67
2022-07-25T04:14:54.208Z,19.69
2022-07-25T04:15:56.376Z,19.70
2022-07-25T04:17:00.310Z,19.72
2022-07-25T04:18:02.094Z,19.71
2022-07-25T04:19:05.392Z,19.70
2022-07-25T04:20:08.682Z,19.67
2022-07-25T04:21:10.912Z,19.68
2022-07-25T04:22:12.689Z,19.70
2022-07-25T04:23:14.545Z,19.72
2022-07-25T04:24:16.290Z,19.73
2022-07-25T04:25:18.342Z,19.72
2022-07-25T04:26:20.206Z,19.73
2022-07-25T04:27:22.431Z,19.75
2022-07-25T04:28:27.265Z,19.76
2022-07-25T04:29:29.514Z,19.79
2022-07-25T04:30:31.345Z,19.80
2022-07-25T04:31:33.234Z,19.81
2022-07-25T04:32:34.982Z,19.82
2022-07-25T04:33:37.706Z,19.83
2022-07-25T04:34:39.429Z,19.85
2022-07-25T04:35:41.333Z,19.86
2022-07-25T04:36:43.177Z,19.87
2022-07-25T04:37:44.954Z,19.86
2022-07-25T04:38:46.802Z,19.86
2022-07-25T04:39:48.617Z,19.88
2022-07-25T04:40:50.562Z,19.90
2022-07-25T04:41:52.354Z,19.91
2022-07-25T04:42:54.482Z,19.93
2022-07-25T04:43:56.246Z,19.93
2022-07-25T04:44:58.137Z,19.89
2022-07-25T04:46:00.179Z,19.87
2022-07-25T04:47:02.043Z,19.83
2022-07-25T04:48:04.463Z,19.85
2022-07-25T04:49:06.286Z,19.87
2022-07-25T04:50:08.398Z,19.88
2022-07-25T04:51:10.953Z,19.91
2022-07-25T04:52:12.727Z,19.92
2022-07-25T04:53:14.473Z,19.90
2022-07-25T04:54:16.235Z,19.92
2022-07-25T04:55:18.173Z,19.92
2022-07-25T04:56:20.072Z,19.93
2022-07-25T04:57:21.905Z,19.91
2022-07-25T04:58:23.698Z,19.88
2022-07-25T04:59:25.456Z,19.87
2022-07-25T05:00:27.274Z,19.88
2022-07-25T05:01:29.272Z,19.90
2022-07-25T05:02:31.128Z,19.90
2022-07-25T05:03:33.087Z,19.93
2022-07-25T05:04:35.046Z,19.93
2022-07-25T05:05:45.176Z,19.96
2022-07-25T05:06:47.076Z,19.98
2022-07-25T05:07:49.220Z,19.99
2022-07-25T05:08:51.125Z,19.98
2022-07-25T05:09:53.080Z,20.00
2022-07-25T05:10:55.002Z,20.01
2022-07-25T05:11:56.875Z,19.99
2022-07-25T05:12:58.777Z,19.98
2022-07-25T05:14:00.776Z,19.98
2022-07-25T05:15:03.283Z,19.99
2022-07-25T05:16:05.542Z,19.97
2022-07-25T05:17:07.547Z,19.94
2022-07-25T05:18:09.430Z,19.95
2022-07-25T05:19:11.633Z,19.95
2022-07-25T05:20:14.047Z,19.94
2022-07-25T05:21:15.900Z,19.97
2022-07-25T05:22:17.883Z,19.98
2022-07-25T05:23:19.687Z,20.00
2022-07-25T05:24:23.205Z,20.01
2022-07-25T05:25:25.681Z,20.01
2022-07-25T05:26:27.505Z,19.97
2022-07-25T05:27:29.430Z,19.94
2022-07-25T05:28:31.363Z,19.96
2022-07-25T05:29:33.149Z,19.97
2022-07-25T05:30:39.582Z,19.93
2022-07-25T05:31:42.041Z,19.91
2022-07-25T05:32:44.066Z,19.84
2022-07-25T05:33:45.905Z,19.81
2022-07-25T05:34:47.688Z,19.84
2022-07-25T05:35:49.496Z,19.88
2022-07-25T05:36:51.286Z,19.92
2022-07-25T05:37:53.270Z,19.97
2022-07-25T05:38:55.131Z,19.97
2022-07-25T05:39:56.901Z,19.99
2022-07-25T05:40:58.758Z,20.00
2022-07-25T05:42:00.577Z,19.99
2022-07-25T05:43:04.895Z,19.99
2022-07-25T05:44:07.003Z,19.99
2022-07-25T05:45:09.232Z,20.05
2022-07-25T05:46:11.212Z,20.01
2022-07-25T05:47:13.532Z,20.04
2022-07-25T05:48:16.057Z,20.07
2022-07-25T05:49:17.943Z,20.06
2022-07-25T05:50:19.749Z,20.09
2022-07-25T05:51:21.560Z,20.14
2022-07-25T05:52:23.385Z,20.17
2022-07-25T05:53:25.492Z,20.17
2022-07-25T05:54:27.596Z,20.16
2022-07-25T05:55:29.518Z,20.21
2022-07-25T05:56:31.300Z,20.26
2022-07-25T05:57:33.143Z,20.30
2022-07-25T05:58:37.131Z,20.36
2022-07-25T05:59:38.900Z,20.41
2022-07-25T06:00:40.865Z,20.47
2022-07-25T06:01:42.741Z,20.47
2022-07-25T06:02:44.665Z,20.52
2022-07-25T06:03:46.728Z,20.51
2022-07-25T06:04:48.681Z,20.52
2022-07-25T06:05:50.523Z,20.54
2022-07-25T06:06:52.650Z,20.57
2022-07-25T06:07:54.620Z,20.62
2022-07-25T06:08:56.568Z,20.66
2022-07-25T06:09:58.947Z,20.68
2022-07-25T06:11:01.067Z,20.70
2022-07-25T06:12:03.922Z,20.72
2022-07-25T06:13:06.153Z,20.75
2022-07-25T06:14:09.823Z,20.78
2022-07-25T06:15:12.633Z,20.84
2022-07-25T06:16:24.717Z,20.88
2022-07-25T06:17:32.007Z,20.92
2022-07-25T06:18:34.453Z,20.92
2022-07-25T06:19:36.371Z,20.94
2022-07-25T06:20:38.144Z,20.97
2022-07-25T06:21:39.938Z,20.99
2022-07-25T06:22:41.721Z,21.02
2022-07-25T06:23:43.613Z,21.04
2022-07-25T06:24:45.815Z,21.01
2022-07-25T06:25:50.369Z,21.03
2022-07-25T06:26:52.469Z,21.07
2022-07-25T06:27:54.302Z,21.11
2022-07-25T06:28:56.224Z,21.12
2022-07-25T06:29:58.175Z,21.15
2022-07-25T06:31:00.047Z,21.18
2022-07-25T06:32:02.022Z,21.21
2022-07-25T06:33:03.912Z,21.23
2022-07-25T06:34:06.035Z,21.26
2022-07-25T06:35:08.323Z,21.29
2022-07-25T06:36:10.776Z,21.34
2022-07-25T06:37:12.717Z,21.37
2022-07-25T06:38:14.598Z,21.42
2022-07-25T06:39:16.385Z,21.46
2022-07-25T06:40:18.296Z,21.50
2022-07-25T06:41:20.327Z,21.54
2022-07-25T06:42:22.140Z,21.59
2022-07-25T06:43:24.030Z,21.62
2022-07-25T06:44:26.101Z,21.66
2022-07-25T06:45:28.063Z,21.69
2022-07-25T06:46:31.805Z,21.72
2022-07-25T06:47:35.990Z,21.74
2022-07-25T06:48:38.107Z,21.76
2022-07-25T06:49:40.498Z,21.78
2022-07-25T06:50:42.645Z,21.81
2022-07-25T06:51:44.491Z,21.85
2022-07-25T06:52:46.600Z,21.89
2022-07-25T06:53:48.691Z,21.93
2022-07-25T06:54:50.492Z,21.96
2022-07-25T06:55:52.296Z,22.02
2022-07-25T06:56:54.349Z,22.05
2022-07-25T06:57:56.282Z,22.10
2022-07-25T06:58:58.694Z,22.15
2022-07-25T07:00:00.517Z,22.18
2022-07-25T07:01:02.544Z,22.22
2022-07-25T07:02:04.397Z,22.26
2022-07-25T07:03:06.187Z,22.30
2022-07-25T07:04:08.328Z,22.33
2022-07-25T07:05:10.544Z,22.36
2022-07-25T07:06:12.511Z,22.40
2022-07-25T07:07:14.439Z,22.44
2022-07-25T07:08:16.250Z,22.47
2022-07-25T07:09:18.053Z,22.49
2022-07-25T07:10:20.820Z,22.53
2022-07-25T07:11:22.934Z,22.55
2022-07-25T07:12:25.171Z,22.61
2022-07-25T07:13:27.371Z,22.65
2022-07-25T07:14:29.129Z,22.71
2022-07-25T07:15:30.926Z,22.75
2022-07-25T07:16:32.966Z,22.76
2022-07-25T07:17:34.743Z,22.81
2022-07-25T07:18:37.106Z,22.84
2022-07-25T07:19:44.680Z,22.87
2022-07-25T07:20:47.419Z,22.91
2022-07-25T07:21:51.663Z,22.93
2022-07-25T07:22:53.812Z,22.96
2022-07-25T07:23:55.653Z,23.00
2022-07-25T07:24:58.957Z,23.07
2022-07-25T07:26:00.792Z,23.11
2022-07-25T07:27:02.801Z,23.13
2022-07-25T07:28:04.770Z,23.21
2022-07-25T07:29:06.922Z,23.24
2022-07-25T07:30:09.784Z,23.30
2022-07-25T07:31:16.707Z,23.32
2022-07-25T07:32:19.308Z,23.37
2022-07-25T07:33:21.228Z,23.43
2022-07-25T07:34:23.062Z,23.48
2022-07-25T07:35:25.664Z,23.52
2022-07-25T07:36:29.511Z,23.56
2022-07-25T07:37:36.585Z,23.60
2022-07-25T07:38:40.630Z,23.66
2022-07-25T07:39:42.500Z,23.69
2022-07-25T07:40:44.415Z,23.74
2022-07-25T07:41:46.223Z,23.79
2022-07-25T07:42:49.603Z,23.83
2022-07-25T07:43:51.439Z,23.87
2022-07-25T07:44:53.456Z,23.90
2022-07-25T07:45:56.355Z,23.95
2022-07-25T07:47:01.894Z,24.01
2022-07-25T07:48:03.882Z,24.07
2022-07-25T07:49:06.061Z,24.12
2022-07-25T07:50:08.596Z,24.15
2022-07-25T07:51:10.595Z,24.21
2022-07-25T07:52:12.388Z,24.26
2022-07-25T07:53:14.345Z,24.30
2022-07-25T07:54:34.551Z,24.35
2022-07-25T07:56:05.299Z,24.39
2022-07-25T07:57:07.126Z,24.45
2022-07-25T07:58:09.057Z,24.49
2022-07-25T07:59:11.029Z,24.53
2022-07-25T08:00:16.549Z,24.57
2022-07-25T08:01:18.611Z,24.62
2022-07-25T08:02:20.601Z,24.64
2022-07-25T08:03:22.739Z,24.69
2022-07-25T08:04:24.601Z,24.72
2022-07-25T08:05:31.058Z,24.76
2022-07-25T08:06:32.870Z,24.80
2022-07-25T08:07:34.658Z,24.86
2022-07-25T08:08:36.522Z,24.90
2022-07-25T08:09:38.621Z,24.94
2022-07-25T08:10:42.144Z,24.99
2022-07-25T08:11:43.986Z,25.05
2022-07-25T08:12:45.786Z,25.08
2022-07-25T08:13:47.724Z,25.12
2022-07-25T08:14:49.623Z,25.16
2022-07-25T08:15:52.824Z,25.20
2022-07-25T08:16:57.254Z,25.24
2022-07-25T08:18:00.584Z,25.27
2022-07-25T08:19:02.510Z,25.31
2022-07-25T08:20:27.996Z,25.33
2022-07-25T08:21:30.706Z,25.39
2022-07-25T08:22:36.560Z,25.44
2022-07-25T08:23:39.324Z,25.49
2022-07-25T08:24:41.415Z,25.56
2022-07-25T08:25:43.879Z,25.61
2022-07-25T08:26:45.789Z,25.67
2022-07-25T08:27:47.685Z,25.70
2022-07-25T08:28:59.925Z,25.73
2022-07-25T08:30:12.613Z,25.76
2022-07-25T08:31:14.534Z,25.79
2022-07-25T08:32:16.331Z,25.83
2022-07-25T08:33:18.503Z,25.85
2022-07-25T08:34:22.714Z,25.87
2022-07-25T08:35:25.103Z,25.92
2022-07-25T08:36:27.037Z,25.97
2022-07-25T08:37:29.058Z,26.01
2022-07-25T08:38:30.890Z,26.07
2022-07-25T08:39:32.717Z,26.10
2022-07-25T08:40:34.691Z,26.14
2022-07-25T08:41:39.958Z,26.21
2022-07-25T08:42:41.938Z,26.25
2022-07-25T08:43:45.076Z,26.28
2022-07-25T08:44:57.207Z,26.32
2022-07-25T08:46:00.402Z,26.35
2022-07-25T08:47:02.442Z,26.40
2022-07-25T08:48:04.473Z,26.44
2022-07-25T08:49:06.358Z,26.47
2022-07-25T08:50:09.721Z,26.50
2022-07-25T08:51:11.694Z,26.53
2022-07-25T08:52:13.833Z,26.57
2022-07-25T08:53:32.568Z,26.62
2022-07-25T08:54:35.582Z,26.66
2022-07-25T08:55:37.570Z,26.70
2022-07-25T08:56:39.455Z,26.74
2022-07-25T08:57:44.115Z,26.76
2022-07-25T08:58:46.016Z,26.78
2022-07-25T08:59:47.783Z,26.80
2022-07-25T09:00:49.620Z,26.83
2022-07-25T09:01:51.518Z,26.87
2022-07-25T09:02:58.404Z,26.87
2022-07-25T09:04:01.230Z,26.91
2022-07-25T09:05:03.062Z,26.94
2022-07-25T09:06:15.352Z,26.97
2022-07-25T09:07:17.095Z,27.00
2022-07-25T09:08:19.449Z,27.05
2022-07-25T09:09:30.173Z,27.08
2022-07-25T09:10:32.176Z,27.11
2022-07-25T09:11:35.841Z,27.15
2022-07-25T09:12:37.629Z,27.19
2022-07-25T09:13:41.930Z,27.23
2022-07-25T09:14:44.311Z,27.26
2022-07-25T09:15:50.475Z,27.31
2022-07-25T09:16:52.392Z,27.36
2022-07-25T09:17:54.729Z,27.39
2022-07-25T09:19:06.358Z,27.42
2022-07-25T09:20:09.463Z,27.45
2022-07-25T09:21:13.610Z,27.49
2022-07-25T09:22:15.398Z,27.52
2022-07-25T09:23:35.718Z,27.57
2022-07-25T09:24:37.795Z,27.61
2022-07-25T09:25:39.559Z,27.68
2022-07-25T09:26:45.601Z,27.71
2022-07-25T09:27:47.552Z,27.74
2022-07-25T09:28:51.517Z,27.76
2022-07-25T09:29:53.417Z,27.79
2022-07-25T09:30:56.185Z,27.82
2022-07-25T09:31:58.867Z,27.85
2022-07-25T09:33:01.912Z,27.89
2022-07-25T09:34:08.798Z,27.93
2022-07-25T09:35:11.180Z,28.02
2022-07-25T09:36:13.638Z,28.07
2022-07-25T09:37:16.900Z,28.11
2022-07-25T09:38:19.358Z,28.12
2022-07-25T09:39:21.153Z,28.16
2022-07-25T09:40:23.082Z,28.17
2022-07-25T09:41:38.504Z,28.18
2022-07-25T09:42:40.309Z,28.22
2022-07-25T09:43:43.005Z,28.24
2022-07-25T09:44:45.394Z,28.27
2022-07-25T09:45:51.340Z,28.30
2022-07-25T09:46:53.207Z,28.35
2022-07-25T09:48:02.641Z,28.38
2022-07-25T09:49:04.707Z,28.41
2022-07-25T09:50:08.041Z,28.43
2022-07-25T09:51:10.032Z,28.51
2022-07-25T09:52:12.579Z,28.55
2022-07-25T09:53:14.373Z,28.59
2022-07-25T09:54:16.205Z,28.62
2022-07-25T09:55:18.185Z,28.68
2022-07-25T09:56:20.046Z,28.71
2022-07-25T09:57:26.059Z,28.73
2022-07-25T09:58:28.558Z,28.78
2022-07-25T09:59:30.433Z,28.79
2022-07-25T10:00:32.907Z,28.82
2022-07-25T10:01:35.962Z,28.85
2022-07-25T10:02:45.831Z,28.90
2022-07-25T10:03:53.621Z,28.98
2022-07-25T10:05:14.573Z,29.05
2022-07-25T10:06:28.330Z,29.16
2022-07-25T10:07:31.654Z,29.23
2022-07-25T10:08:40.934Z,29.27
2022-07-25T10:09:46.940Z,29.32
2022-07-25T10:10:48.995Z,29.36
2022-07-25T10:12:06.193Z,29.38
2022-07-25T10:13:12.314Z,29.41
2022-07-25T10:14:14.202Z,29.45
2022-07-25T10:15:16.169Z,29.48
2022-07-25T10:16:19.956Z,29.50
2022-07-25T10:17:22.127Z,29.57
2022-07-25T10:18:26.464Z,29.68
2022-07-25T10:19:42.908Z,29.82
2022-07-25T10:20:48.618Z,29.95
2022-07-25T10:21:55.722Z,30.01
2022-07-25T10:22:58.275Z,30.07
2022-07-25T10:24:05.345Z,30.16
2022-07-25T10:25:11.986Z,30.26
2022-07-25T10:26:16.513Z,30.33
2022-07-25T10:27:22.584Z,30.38
2022-07-25T10:28:34.717Z,30.39
2022-07-25T10:29:37.871Z,30.48
2022-07-25T10:30:40.690Z,30.57
2022-07-25T10:31:49.938Z,30.63
2022-07-25T10:32:59.851Z,30.69
2022-07-25T10:34:06.548Z,30.78
2022-07-25T10:35:17.010Z,30.87
2022-07-25T10:36:19.793Z,30.92
2022-07-25T10:37:27.555Z,30.99
2022-07-25T10:38:29.629Z,31.03
2022-07-25T10:39:37.637Z,31.05
2022-07-25T10:40:40.943Z,31.07
2022-07-25T10:41:49.820Z,31.11
2022-07-25T10:42:56.366Z,31.16
2022-07-25T10:44:01.697Z,31.22
2022-07-25T10:45:06.223Z,31.24
2022-07-25T10:46:15.455Z,31.32
2022-07-25T10:47:17.864Z,31.40
2022-07-25T10:48:25.616Z,31.46
2022-07-25T10:49:32.176Z,31.53
2022-07-25T10:50:54.532Z,31.57
2022-07-25T10:52:00.698Z,31.66
2022-07-25T10:53:08.001Z,31.71
2022-07-25T10:54:16.643Z,31.79
2022-07-25T10:55:24.578Z,31.84
2022-07-25T10:56:27.875Z,31.92
2022-07-25T10:57:31.996Z,32.02
2022-07-25T10:59:00.471Z,32.09
2022-07-25T11:00:08.807Z,32.20
2022-07-25T11:01:10.833Z,32.28
2022-07-25T11:02:21.837Z,32.35
2022-07-25T11:03:24.893Z,32.42
2022-07-25T11:04:26.762Z,32.48
2022-07-25T11:05:30.523Z,32.56
2022-07-25T11:06:36.691Z,32.62
2022-07-25T11:08:19.121Z,32.67
2022-07-25T11:09:26.943Z,32.77
2022-07-25T11:10:29.860Z,32.85
2022-07-25T11:11:38.686Z,32.93
2022-07-25T11:12:40.468Z,33.00
2022-07-25T11:13:42.702Z,33.06
2022-07-25T11:14:44.583Z,33.11
2022-07-25T11:15:47.003Z,33.17
2022-07-25T11:16:50.820Z,33.25
2022-07-25T11:17:53.406Z,33.31
2022-07-25T11:18:55.368Z,33.37
2022-07-25T11:20:05.459Z,33.43
2022-07-25T11:21:08.368Z,33.51
2022-07-25T11:22:10.518Z,33.58
2022-07-25T11:23:12.434Z,33.64
2022-07-25T11:24:14.359Z,33.67
2022-07-25T11:25:16.324Z,33.73
2022-07-25T11:26:18.520Z,33.78
2022-07-25T11:27:24.880Z,33.85
2022-07-25T11:28:36.869Z,33.93
2022-07-25T11:29:39.120Z,33.97
2022-07-25T11:30:40.871Z,34.02
2022-07-25T11:31:43.455Z,34.06
2022-07-25T11:32:47.340Z,34.09
2022-07-25T11:33:50.275Z,34.16
2022-07-25T11:34:53.799Z,34.21
2022-07-25T11:35:56.762Z,34.27
2022-07-25T11:36:59.581Z,34.32
2022-07-25T11:38:02.712Z,34.38
2022-07-25T11:39:05.478Z,34.43
2022-07-25T11:40:08.542Z,34.46
2022-07-25T11:41:10.521Z,34.53
2022-07-25T11:42:12.275Z,34.56
2022-07-25T11:43:23.766Z,34.61
2022-07-25T11:44:36.104Z,34.68
2022-07-25T11:45:40.160Z,34.72
2022-07-25T11:46:43.372Z,34.74
2022-07-25T11:47:45.577Z,34.75
2022-07-25T11:48:48.161Z,34.81
2022-07-25T11:49:51.588Z,34.86
2022-07-25T11:50:53.390Z,34.89
2022-07-25T11:51:55.261Z,34.98
2022-07-25T11:53:04.853Z,35.05
2022-07-25T11:54:10.944Z,35.15
2022-07-25T11:55:14.911Z,35.17
2022-07-25T11:56:41.241Z,35.23
2022-07-25T11:57:46.669Z,35.22
2022-07-25T11:58:59.210Z,35.23
2022-07-25T12:00:02.826Z,35.26
2022-07-25T12:01:11.292Z,35.35
2022-07-25T12:02:21.307Z,35.41
2022-07-25T12:03:24.405Z,35.45
2022-07-25T12:04:26.408Z,35.48
2022-07-25T12:05:32.395Z,35.48
2022-07-25T12:06:34.154Z,35.50
2022-07-25T12:07:40.719Z,35.55
2022-07-25T12:08:42.843Z,35.61
2022-07-25T12:09:55.331Z,35.63
2022-07-25T12:10:57.214Z,35.69
2022-07-25T12:12:03.685Z,35.73
2022-07-25T12:13:06.545Z,35.80
2022-07-25T12:14:08.958Z,35.79
2022-07-25T12:15:12.092Z,35.83
2022-07-25T12:16:14.144Z,35.94
2022-07-25T12:17:16.043Z,36.03
2022-07-25T12:18:18.786Z,36.05
2022-07-25T12:19:21.231Z,36.14
2022-07-25T12:20:24.697Z,36.14
2022-07-25T12:21:26.833Z,36.14
2022-07-25T12:22:28.626Z,36.15
2022-07-25T12:23:30.513Z,36.19
2022-07-25T12:24:32.490Z,36.25
2022-07-25T12:25:36.050Z,36.25
2022-07-25T12:26:38.114Z,36.24
2022-07-25T12:27:40.238Z,36.30
2022-07-25T12:28:42.019Z,36.34
2022-07-25T12:29:43.901Z,36.38
2022-07-25T12:30:46.408Z,36.38
2022-07-25T12:31:48.264Z,36.44
2022-07-25T12:32:50.207Z,36.50
2022-07-25T12:33:52.847Z,36.53
2022-07-25T12:34:54.682Z,36.59
2022-07-25T12:35:56.606Z,36.52
2022-07-25T12:36:58.485Z,36.61
2022-07-25T12:38:00.368Z,36.69
2022-07-25T12:39:02.193Z,36.70
2022-07-25T12:40:04.747Z,36.67
2022-07-25T12:41:06.661Z,36.72
2022-07-25T12:42:08.483Z,36.72
2022-07-25T12:43:10.344Z,36.75
2022-07-25T12:44:12.298Z,36.78
2022-07-25T12:45:15.769Z,36.76
2022-07-25T12:46:17.753Z,36.75
2022-07-25T12:47:19.750Z,36.76
2022-07-25T12:48:22.651Z,36.69
2022-07-25T12:49:24.503Z,36.75
2022-07-25T12:50:26.451Z,36.82
2022-07-25T12:51:28.331Z,36.87
2022-07-25T12:52:30.204Z,36.93
2022-07-25T12:53:32.093Z,36.97
2022-07-25T12:54:34.402Z,36.97
2022-07-25T12:55:36.638Z,36.94
2022-07-25T12:56:38.576Z,36.98
2022-07-25T12:57:40.546Z,37.03
2022-07-25T12:58:42.494Z,37.10
2022-07-25T12:59:45.058Z,37.16
2022-07-25T13:00:47.069Z,37.19
2022-07-25T13:01:49.030Z,37.23
2022-07-25T13:02:52.209Z,37.28
2022-07-25T13:03:54.187Z,37.36
2022-07-25T13:04:58.728Z,37.37
2022-07-25T13:06:00.667Z,37.39
2022-07-25T13:07:02.694Z,37.42
2022-07-25T13:08:05.557Z,37.39
2022-07-25T13:09:07.997Z,37.37
2022-07-25T13:10:10.735Z,37.37
2022-07-25T13:11:13.360Z,37.42
2022-07-25T13:12:16.693Z,37.40
2022-07-25T13:13:18.643Z,37.44
2022-07-25T13:14:20.470Z,37.45
2022-07-25T13:15:23.814Z,37.47
2022-07-25T13:16:25.858Z,37.47
2022-07-25T13:17:28.074Z,37.55
2022-07-25T13:18:30.788Z,37.58
2022-07-25T13:19:32.532Z,37.58
2022-07-25T13:20:36.339Z,37.63
2022-07-25T13:21:38.337Z,37.61
2022-07-25T13:22:40.334Z,37.56
2022-07-25T13:23:42.175Z,37.60
2022-07-25T13:24:44.218Z,37.68
2022-07-25T13:25:46.035Z,37.78
2022-07-25T13:26:47.911Z,37.79
2022-07-25T13:27:49.824Z,37.80
2022-07-25T13:29:05.215Z,37.76
2022-07-25T13:30:08.883Z,37.66
2022-07-25T13:31:10.685Z,37.67
2022-07-25T13:32:13.528Z,37.66
2022-07-25T13:33:16.314Z,37.71